createdAt,value
2019-02-23T00:02:16.076Z,6.20
2019-02-23T00:04:44.495Z,6.20
2019-02-23T00:07:12.911Z,6.10
2019-02-23T00:09:41.350Z,6.10
2019-02-23T00:12:09.782Z,6.10
2019-02-23T00:14:38.234Z,6.00
2019-02-23T00:17:06.711Z,6.00
2019-02-23T00:19:35.137Z,5.80
2019-02-23T00:22:03.579Z,5.80
2019-02-23T00:24:31.978Z,5.80
2019-02-23T00:27:00.417Z,5.80
2019-02-23T00:29:28.842Z,5.80
2019-02-23T00:31:57.253Z,5.90
2019-02-23T00:34:25.685Z,5.90
2019-02-23T00:36:54.103Z,5.90
2019-02-23T00:39:22.539Z,5.90
2019-02-23T00:41:50.963Z,5.80
2019-02-23T00:44:19.426Z,5.70
2019-02-23T00:46:47.857Z,5.70
2019-02-23T00:49:16.288Z,5.60
2019-02-23T00:51:44.710Z,5.60
2019-02-23T00:54:13.150Z,5.50
2019-02-23T00:56:41.766Z,5.50
2019-02-23T00:59:10.179Z,5.50
2019-02-23T01:01:38.603Z,5.50
2019-02-23T01:04:07.098Z,5.50
2019-02-23T01:06:35.539Z,5.30
2019-02-23T01:09:04.986Z,5.30
2019-02-23T01:11:33.418Z,5.10
2019-02-23T01:14:01.991Z,5.10
2019-02-23T01:16:30.399Z,5.10
2019-02-23T01:18:58.863Z,5.00
2019-02-23T01:21:27.274Z,5.00
2019-02-23T01:23:55.779Z,5.10
2019-02-23T01:26:24.198Z,5.10
2019-02-23T01:28:52.627Z,5.10
2019-02-23T01:31:21.042Z,5.00
2019-02-23T01:33:49.451Z,4.90
2019-02-23T01:36:18.055Z,4.90
2019-02-23T01:38:46.482Z,4.80
2019-02-23T01:41:14.986Z,5.00
2019-02-23T01:43:43.455Z,4.90
2019-02-23T01:46:11.892Z,5.00
2019-02-23T01:48:40.370Z,5.00
2019-02-23T01:51:08.781Z,4.90
2019-02-23T01:53:37.232Z,5.10
2019-02-23T01:56:05.644Z,5.00
2019-02-23T01:58:34.075Z,5.10
2019-02-23T02:01:02.559Z,5.00
2019-02-23T02:03:31.058Z,5.00
2019-02-23T02:05:59.546Z,4.90
2019-02-23T02:08:27.976Z,4.90
2019-02-23T02:10:56.456Z,4.90
2019-02-23T02:13:24.895Z,4.90
2019-02-23T02:15:53.312Z,4.90
2019-02-23T02:18:21.726Z,4.80
2019-02-23T02:20:50.135Z,4.60
2019-02-23T02:23:18.576Z,4.60
2019-02-23T02:25:46.987Z,4.70
2019-02-23T02:28:15.418Z,4.60
2019-02-23T02:30:43.834Z,4.60
2019-02-23T02:33:12.350Z,4.20
2019-02-23T02:35:40.811Z,4.30
2019-02-23T02:38:09.251Z,4.40
2019-02-23T02:40:37.662Z,4.50
2019-02-23T02:43:06.071Z,4.40
2019-02-23T02:45:34.504Z,4.40
2019-02-23T02:48:02.918Z,4.40
2019-02-23T02:50:31.340Z,4.60
2019-02-23T02:52:59.773Z,4.60
2019-02-23T02:55:28.263Z,4.60
2019-02-23T02:57:56.679Z,4.60
2019-02-23T03:00:25.154Z,4.50
2019-02-23T03:02:53.583Z,4.40
2019-02-23T03:05:22.080Z,4.50
2019-02-23T03:07:50.512Z,4.30
2019-02-23T03:10:18.931Z,4.30
2019-02-23T03:12:47.333Z,4.20
2019-02-23T03:15:15.764Z,4.40
2019-02-23T03:17:44.192Z,4.40
2019-02-23T03:20:12.614Z,4.30
2019-02-23T03:22:41.017Z,4.10
2019-02-23T03:25:09.436Z,4.00
2019-02-23T03:27:37.883Z,4.10
2019-02-23T03:30:09.248Z,4.20
2019-02-23T03:32:37.656Z,4.20
2019-02-23T03:35:06.186Z,4.20
2019-02-23T03:37:34.614Z,4.10
2019-02-23T03:40:03.089Z,4.20
2019-02-23T03:42:31.514Z,4.30
2019-02-23T03:44:59.929Z,4.20
2019-02-23T03:47:28.344Z,4.10
2019-02-23T03:49:56.767Z,4.10
2019-02-23T03:52:25.183Z,3.80
2019-02-23T03:54:53.639Z,3.90
2019-02-23T03:57:22.117Z,3.60
2019-02-23T03:59:50.530Z,3.70
2019-02-23T04:02:18.993Z,3.70
2019-02-23T04:04:47.436Z,3.70
2019-02-23T04:07:15.927Z,3.70
2019-02-23T04:09:44.359Z,3.50
2019-02-23T04:12:12.894Z,3.60
2019-02-23T04:14:41.390Z,3.60
2019-02-23T04:17:09.830Z,3.60
2019-02-23T04:19:38.250Z,3.50
2019-02-23T04:22:06.655Z,3.60
2019-02-23T04:24:35.083Z,3.60
2019-02-23T04:27:03.492Z,3.60
2019-02-23T04:29:31.924Z,3.50
2019-02-23T04:32:00.328Z,3.50
2019-02-23T04:34:28.743Z,3.20
2019-02-23T04:36:57.179Z,3.00
2019-02-23T04:39:25.600Z,2.90
2019-02-23T04:41:54.019Z,2.80
2019-02-23T04:44:22.470Z,2.90
2019-02-23T04:46:50.949Z,2.80
2019-02-23T04:49:19.384Z,3.00
2019-02-23T04:51:47.848Z,3.00
2019-02-23T04:54:16.285Z,2.90
2019-02-23T04:56:44.692Z,2.80
2019-02-23T04:59:13.099Z,2.80
2019-02-23T05:01:41.534Z,2.80
2019-02-23T05:04:10.047Z,2.80
2019-02-23T05:06:38.481Z,2.90
2019-02-23T05:09:06.891Z,2.90
2019-02-23T05:11:35.319Z,2.90
2019-02-23T05:14:03.815Z,2.90
2019-02-23T05:16:32.250Z,2.90
2019-02-23T05:19:00.655Z,2.90
2019-02-23T05:21:29.145Z,2.90
2019-02-23T05:23:57.570Z,2.90
2019-02-23T05:26:25.980Z,3.00
2019-02-23T05:28:54.398Z,2.90
2019-02-23T05:31:22.820Z,3.00
2019-02-23T05:33:51.231Z,3.10
2019-02-23T05:36:19.660Z,3.00
2019-02-23T05:38:48.158Z,2.90
2019-02-23T05:41:16.582Z,3.10
2019-02-23T05:43:44.991Z,3.20
2019-02-23T05:46:13.418Z,3.20
2019-02-23T05:48:41.825Z,2.90
2019-02-23T05:51:10.258Z,3.00
2019-02-23T05:53:38.676Z,3.00
2019-02-23T05:56:07.089Z,3.00
2019-02-23T05:58:35.511Z,3.00
2019-02-23T06:01:03.987Z,3.00
2019-02-23T06:03:32.410Z,3.00
2019-02-23T06:06:00.844Z,3.00
2019-02-23T06:08:29.279Z,2.50
2019-02-23T06:10:57.687Z,2.10
2019-02-23T06:13:26.107Z,2.20
2019-02-23T06:15:54.539Z,2.40
2019-02-23T06:18:22.963Z,2.50
2019-02-23T06:20:51.374Z,2.50
2019-02-23T06:23:19.784Z,2.50
2019-02-23T06:25:48.239Z,2.70
2019-02-23T06:28:16.647Z,2.70
2019-02-23T06:30:45.083Z,2.60
2019-02-23T06:33:13.484Z,2.70
2019-02-23T06:35:41.887Z,2.70
2019-02-23T06:38:10.339Z,2.80
2019-02-23T06:40:38.737Z,2.80
2019-02-23T06:43:07.167Z,2.80
2019-02-23T06:45:35.578Z,2.70
2019-02-23T06:48:04.060Z,2.70
2019-02-23T06:50:32.558Z,2.80
2019-02-23T06:53:00.965Z,2.80
2019-02-23T06:55:29.399Z,2.90
2019-02-23T06:57:57.818Z,2.90
2019-02-23T07:00:26.252Z,2.90
2019-02-23T07:02:54.655Z,2.90
2019-02-23T07:05:23.063Z,3.00
2019-02-23T07:07:51.507Z,3.00
2019-02-23T07:10:19.929Z,3.00
2019-02-23T07:12:48.374Z,3.00
2019-02-23T07:15:16.787Z,3.20
2019-02-23T07:17:45.197Z,3.20
2019-02-23T07:20:13.763Z,3.30
2019-02-23T07:22:42.175Z,3.40
2019-02-23T07:25:10.950Z,3.50
2019-02-23T07:27:39.383Z,3.20
2019-02-23T07:30:14.816Z,2.50
2019-02-23T07:32:43.247Z,2.40
2019-02-23T07:35:11.799Z,2.50
2019-02-23T07:37:40.214Z,2.60
2019-02-23T07:40:13.431Z,3.00
2019-02-23T07:42:41.857Z,3.30
2019-02-23T07:45:10.911Z,3.60
2019-02-23T07:47:39.323Z,3.80
2019-02-23T07:50:15.475Z,3.60
2019-02-23T07:52:43.896Z,3.60
2019-02-23T07:55:12.327Z,3.80
2019-02-23T07:57:40.744Z,3.90
2019-02-23T08:00:12.074Z,4.10
2019-02-23T08:02:40.613Z,4.00
2019-02-23T08:05:10.170Z,3.90
2019-02-23T08:07:39.893Z,4.00
2019-02-23T08:10:10.817Z,4.00
2019-02-23T08:12:39.321Z,4.00
2019-02-23T08:15:11.607Z,3.80
2019-02-23T08:17:40.019Z,3.90
2019-02-23T08:20:13.033Z,4.00
2019-02-23T08:22:41.479Z,4.20
2019-02-23T08:25:11.634Z,4.40
2019-02-23T08:27:40.071Z,4.60
2019-02-23T08:30:11.890Z,4.70
2019-02-23T08:32:40.380Z,4.90
2019-02-23T08:35:09.088Z,5.10
2019-02-23T08:37:38.373Z,5.20
2019-02-23T08:40:09.838Z,5.30
2019-02-23T08:42:38.246Z,5.30
2019-02-23T08:45:08.635Z,5.40
2019-02-23T08:47:37.074Z,5.40
2019-02-23T08:50:08.643Z,5.40
2019-02-23T08:52:48.175Z,5.50
2019-02-23T08:55:09.080Z,5.40
2019-02-23T08:57:37.506Z,5.50
2019-02-23T09:00:09.066Z,5.60
2019-02-23T09:02:37.484Z,5.70
2019-02-23T09:05:08.054Z,5.80
2019-02-23T09:07:36.470Z,5.90
2019-02-23T09:10:07.555Z,6.10
2019-02-23T09:12:36.034Z,6.30
2019-02-23T09:15:06.118Z,6.30
2019-02-23T09:17:34.652Z,6.50
2019-02-23T09:20:03.546Z,6.40
2019-02-23T09:22:31.972Z,6.60
2019-02-23T09:25:00.394Z,6.70
2019-02-23T09:27:28.843Z,6.80
2019-02-23T09:29:57.366Z,6.90
2019-02-23T09:32:25.795Z,7.00
2019-02-23T09:34:54.219Z,7.30
2019-02-23T09:37:22.670Z,7.20
2019-02-23T09:39:51.158Z,7.50
2019-02-23T09:42:19.711Z,7.90
2019-02-23T09:44:48.117Z,8.10
2019-02-23T09:47:16.575Z,8.30
2019-02-23T09:49:44.998Z,8.70
2019-02-23T09:52:13.411Z,8.60
2019-02-23T09:54:41.861Z,8.60
2019-02-23T09:57:10.295Z,8.60
2019-02-23T09:59:40.209Z,8.70
2019-02-23T10:02:08.843Z,8.80
2019-02-23T10:04:37.284Z,8.70
2019-02-23T10:07:05.702Z,9.10
2019-02-23T10:09:34.299Z,9.30
2019-02-23T10:12:02.725Z,9.40
2019-02-23T10:14:31.164Z,9.20
2019-02-23T10:16:59.612Z,9.30
2019-02-23T10:19:28.019Z,9.40
2019-02-23T10:21:56.456Z,9.60
2019-02-23T10:24:24.891Z,9.50
2019-02-23T10:26:53.321Z,9.50
2019-02-23T10:29:21.747Z,9.60
2019-02-23T10:31:50.160Z,9.70
2019-02-23T10:34:18.596Z,9.80
2019-02-23T10:36:47.008Z,9.90
2019-02-23T10:39:15.430Z,9.90
2019-02-23T10:41:43.862Z,10.00
2019-02-23T10:44:12.302Z,10.00
2019-02-23T10:46:40.719Z,9.80
2019-02-23T10:49:09.311Z,9.90
2019-02-23T10:51:37.832Z,10.00
2019-02-23T10:54:06.514Z,10.00
2019-02-23T10:56:34.959Z,9.90
2019-02-23T10:59:03.446Z,9.70
2019-02-23T11:01:31.888Z,9.80
2019-02-23T11:04:00.301Z,10.20
2019-02-23T11:06:28.823Z,10.00
2019-02-23T11:08:57.251Z,10.20
2019-02-23T11:11:25.692Z,10.30
2019-02-23T11:13:54.101Z,10.60
2019-02-23T11:16:22.545Z,10.70
2019-02-23T11:18:51.036Z,10.80
2019-02-23T11:21:19.567Z,11.00
2019-02-23T11:23:48.013Z,11.10
2019-02-23T11:26:16.499Z,11.20
2019-02-23T11:28:45.018Z,11.20
2019-02-23T11:31:13.464Z,11.20
2019-02-23T11:33:41.906Z,11.20
2019-02-23T11:36:10.396Z,11.30
2019-02-23T11:38:38.838Z,11.20
2019-02-23T11:41:07.270Z,11.20
2019-02-23T11:43:35.686Z,11.30
2019-02-23T11:46:04.200Z,11.30
2019-02-23T11:48:32.632Z,11.50
2019-02-23T11:51:01.081Z,11.30
2019-02-23T11:53:29.499Z,11.40
2019-02-23T11:55:57.927Z,11.40
2019-02-23T11:58:26.349Z,11.20
2019-02-23T12:00:54.866Z,11.10
2019-02-23T12:03:23.383Z,11.10
2019-02-23T12:05:51.806Z,10.90
2019-02-23T12:08:20.228Z,11.10
2019-02-23T12:10:48.674Z,11.60
2019-02-23T12:13:17.120Z,12.00
2019-02-23T12:15:45.522Z,12.30
2019-02-23T12:18:13.949Z,12.30
2019-02-23T12:20:42.430Z,12.30
2019-02-23T12:23:10.989Z,12.40
2019-02-23T12:25:39.419Z,12.70
2019-02-23T12:28:07.834Z,12.20
2019-02-23T12:30:36.282Z,12.10
2019-02-23T12:33:04.699Z,12.00
2019-02-23T12:35:33.192Z,12.10
2019-02-23T12:38:01.667Z,12.20
2019-02-23T12:40:30.087Z,12.20
2019-02-23T12:42:58.518Z,12.20
2019-02-23T12:45:28.421Z,12.30
2019-02-23T12:47:57.057Z,12.30
2019-02-23T12:50:25.500Z,12.10
2019-02-23T12:52:53.936Z,12.20
2019-02-23T12:55:22.367Z,12.30
2019-02-23T12:57:50.791Z,12.20
2019-02-23T13:00:19.578Z,12.20
2019-02-23T13:02:48.102Z,12.30
2019-02-23T13:05:16.879Z,12.40
2019-02-23T13:07:45.483Z,12.40
2019-02-23T13:10:14.155Z,12.70
2019-02-23T13:12:53.994Z,12.90
2019-02-23T13:15:43.906Z,13.00
2019-02-23T13:18:24.608Z,12.80
2019-02-23T13:21:07.893Z,12.90
2019-02-23T13:23:50.821Z,12.70
2019-02-23T13:26:42.414Z,12.80
2019-02-23T13:29:36.822Z,12.40
2019-02-23T13:32:34.103Z,12.30
2019-02-23T13:35:14.432Z,12.10
2019-02-23T13:38:01.083Z,12.10
2019-02-23T13:40:41.290Z,12.00
2019-02-23T13:43:15.478Z,12.10
2019-02-23T13:45:55.843Z,12.20
2019-02-23T13:48:39.478Z,12.00
2019-02-23T13:51:13.955Z,11.80
2019-02-23T13:54:00.543Z,11.50
2019-02-23T13:56:40.877Z,11.50
2019-02-23T13:59:24.175Z,11.40
2019-02-23T14:02:10.731Z,11.70
2019-02-23T14:04:58.875Z,11.60
2019-02-23T14:08:04.083Z,11.60
2019-02-23T14:10:38.366Z,11.30
2019-02-23T14:13:24.770Z,11.30
2019-02-23T14:16:29.416Z,11.40
2019-02-23T14:19:03.937Z,11.40
2019-02-23T14:21:53.809Z,11.30
2019-02-23T14:24:49.862Z,11.20
2019-02-23T14:27:33.159Z,11.40
2019-02-23T14:30:22.077Z,11.30
2019-02-23T14:33:05.775Z,11.40
2019-02-23T14:35:37.373Z,11.50
2019-02-23T14:38:37.673Z,11.50
2019-02-23T14:41:21.254Z,11.50
2019-02-23T14:43:52.871Z,11.50
2019-02-23T14:46:39.155Z,11.50
2019-02-23T14:49:13.681Z,11.50
2019-02-23T14:52:01.986Z,11.50
2019-02-23T14:54:33.606Z,11.50
2019-02-23T14:57:14.138Z,11.40
2019-02-23T14:59:48.260Z,11.50
2019-02-23T15:02:25.463Z,11.50
2019-02-23T15:05:08.793Z,11.40
2019-02-23T15:07:49.043Z,11.30
2019-02-23T15:10:43.349Z,11.30
2019-02-23T15:13:14.947Z,11.30
2019-02-23T15:16:01.566Z,11.20
2019-02-23T15:18:44.568Z,11.20
2019-02-23T15:21:35.759Z,11.30
2019-02-23T15:24:07.363Z,11.00
2019-02-23T15:27:04.915Z,11.00
2019-02-23T15:29:48.455Z,11.10
2019-02-23T15:32:31.874Z,10.90
2019-02-23T15:35:24.499Z,10.90
2019-02-23T15:38:04.775Z,10.80
2019-02-23T15:40:42.074Z,10.80
2019-02-23T15:43:19.259Z,10.80
2019-02-23T15:45:50.870Z,10.70
2019-02-23T15:48:42.030Z,10.70
2019-02-23T15:51:10.523Z,10.60
2019-02-23T15:53:38.982Z,10.60
2019-02-23T15:56:07.419Z,10.60
2019-02-23T15:58:35.843Z,10.50
2019-02-23T16:01:04.327Z,10.50
2019-02-23T16:03:32.750Z,10.40
2019-02-23T16:06:01.239Z,10.30
2019-02-23T16:08:29.675Z,10.20
2019-02-23T16:10:58.095Z,10.10
2019-02-23T16:13:26.614Z,10.00
2019-02-23T16:15:55.171Z,9.90
2019-02-23T16:18:23.613Z,9.80
2019-02-23T16:20:52.106Z,9.80
2019-02-23T16:23:20.549Z,9.60
2019-02-23T16:25:49.019Z,9.60
2019-02-23T16:28:17.508Z,9.50
2019-02-23T16:30:45.942Z,9.40
2019-02-23T16:33:14.379Z,9.40
2019-02-23T16:35:42.792Z,9.40
2019-02-23T16:38:11.206Z,9.30
2019-02-23T16:40:39.637Z,9.30
2019-02-23T16:43:08.042Z,9.30
2019-02-23T16:45:36.475Z,9.20
2019-02-23T16:48:04.916Z,9.10
2019-02-23T16:50:33.396Z,9.10
2019-02-23T16:53:01.853Z,9.00
2019-02-23T16:55:30.273Z,8.90
2019-02-23T16:57:58.702Z,8.90
2019-02-23T17:00:27.240Z,8.90
2019-02-23T17:02:55.688Z,8.80
2019-02-23T17:05:24.106Z,8.70
2019-02-23T17:07:52.522Z,8.70
2019-02-23T17:10:20.983Z,8.50
2019-02-23T17:12:49.428Z,8.50
2019-02-23T17:15:17.879Z,8.30
2019-02-23T17:17:46.283Z,8.30
2019-02-23T17:20:14.712Z,8.40
2019-02-23T17:22:43.265Z,8.30
2019-02-23T17:25:11.670Z,8.20
2019-02-23T17:27:40.160Z,8.20
2019-02-23T17:30:09.330Z,8.20
2019-02-23T17:32:37.759Z,8.10
2019-02-23T17:35:06.840Z,8.10
2019-02-23T17:37:35.349Z,8.10
2019-02-23T17:40:05.095Z,8.10
2019-02-23T17:42:33.562Z,8.10
2019-02-23T17:45:01.989Z,8.10
2019-02-23T17:47:30.399Z,8.00
2019-02-23T17:49:58.903Z,7.90
2019-02-23T17:52:27.315Z,7.80
2019-02-23T17:54:55.753Z,7.80
2019-02-23T17:57:24.165Z,7.70
2019-02-23T17:59:52.587Z,7.60
2019-02-23T18:02:21.156Z,7.60
2019-02-23T18:04:49.650Z,7.60
2019-02-23T18:07:18.142Z,7.60
2019-02-23T18:09:46.561Z,7.60
2019-02-23T18:12:14.988Z,7.50
2019-02-23T18:14:43.398Z,7.50
2019-02-23T18:17:11.832Z,7.50
2019-02-23T18:19:40.251Z,7.50
2019-02-23T18:22:08.662Z,7.40
2019-02-23T18:24:37.210Z,7.50
2019-02-23T18:27:05.755Z,7.30
2019-02-23T18:29:34.181Z,7.30
2019-02-23T18:32:02.603Z,7.30
2019-02-23T18:34:31.916Z,7.30
2019-02-23T18:37:00.861Z,7.00
2019-02-23T18:39:29.263Z,6.90
2019-02-23T18:41:57.707Z,6.90
2019-02-23T18:44:26.206Z,6.90
2019-02-23T18:46:54.619Z,6.90
2019-02-23T18:49:23.063Z,6.80
2019-02-23T18:51:51.494Z,6.70
2019-02-23T18:54:19.938Z,6.70
2019-02-23T18:56:48.362Z,6.60
2019-02-23T18:59:16.826Z,6.60
2019-02-23T19:01:45.247Z,6.60
2019-02-23T19:04:13.735Z,6.50
2019-02-23T19:06:42.202Z,6.50
2019-02-23T19:09:10.677Z,6.50
2019-02-23T19:11:39.115Z,6.50
2019-02-23T19:14:07.529Z,6.50
2019-02-23T19:16:35.962Z,6.50
2019-02-23T19:19:04.383Z,6.50
2019-02-23T19:21:32.818Z,6.40
2019-02-23T19:24:01.243Z,6.50
2019-02-23T19:26:37.836Z,6.40
2019-02-23T19:28:59.841Z,6.50
2019-02-23T19:31:28.263Z,6.40
2019-02-23T19:33:56.697Z,6.40
2019-02-23T19:36:25.172Z,6.50
2019-02-23T19:38:53.604Z,6.60
2019-02-23T19:41:22.140Z,5.90
2019-02-23T19:43:50.566Z,5.90
2019-02-23T19:46:19.183Z,6.10
2019-02-23T19:48:47.615Z,6.30
2019-02-23T19:51:16.160Z,6.00
2019-02-23T19:53:44.577Z,5.80
2019-02-23T19:56:13.023Z,5.90
2019-02-23T19:58:41.451Z,5.50
2019-02-23T20:01:09.896Z,5.30
2019-02-23T20:03:38.642Z,5.40
2019-02-23T20:06:07.163Z,5.50
2019-02-23T20:08:35.599Z,5.40
2019-02-23T20:11:04.107Z,5.20
2019-02-23T20:13:32.544Z,5.50
2019-02-23T20:16:00.958Z,5.60
2019-02-23T20:18:29.409Z,5.70
2019-02-23T20:20:57.824Z,5.70
2019-02-23T20:23:26.254Z,5.70
2019-02-23T20:25:54.689Z,5.70
2019-02-23T20:28:23.131Z,5.60
2019-02-23T20:30:51.551Z,5.60
2019-02-23T20:33:20.003Z,5.50
2019-02-23T20:35:48.448Z,5.50
2019-02-23T20:38:16.867Z,5.40
2019-02-23T20:40:45.320Z,5.40
2019-02-23T20:43:13.745Z,5.40
2019-02-23T20:45:42.173Z,5.20
2019-02-23T20:48:10.694Z,5.20
2019-02-23T20:50:40.247Z,5.20
2019-02-23T20:53:08.895Z,5.20
2019-02-23T20:55:37.332Z,5.10
2019-02-23T20:58:05.818Z,5.10
2019-02-23T21:00:34.225Z,5.00
2019-02-23T21:03:02.666Z,5.10
2019-02-23T21:05:31.090Z,5.00
2019-02-23T21:07:59.566Z,5.00
2019-02-23T21:10:28.328Z,5.00
2019-02-23T21:12:56.847Z,4.80
2019-02-23T21:15:25.329Z,4.70
2019-02-23T21:17:53.754Z,4.60
2019-02-23T21:20:22.151Z,4.60
2019-02-23T21:22:50.599Z,4.70
2019-02-23T21:25:19.055Z,4.80
2019-02-23T21:27:47.491Z,4.70
2019-02-23T21:30:16.073Z,4.70
2019-02-23T21:32:44.517Z,4.50
2019-02-23T21:35:13.004Z,4.50
2019-02-23T21:37:41.446Z,4.40
2019-02-23T21:40:12.074Z,4.40
2019-02-23T21:42:40.410Z,4.40
2019-02-23T21:45:09.599Z,4.40
2019-02-23T21:47:38.029Z,4.20
2019-02-23T21:50:08.743Z,3.90
2019-02-23T21:52:37.150Z,4.10
2019-02-23T21:55:05.897Z,4.00
2019-02-23T21:57:34.326Z,4.10
2019-02-23T22:00:02.795Z,4.10
2019-02-23T22:02:31.239Z,4.10
2019-02-23T22:04:59.678Z,4.10
2019-02-23T22:07:28.166Z,4.10
2019-02-23T22:09:56.612Z,4.00
2019-02-23T22:12:25.051Z,4.00
2019-02-23T22:14:53.460Z,4.00
2019-02-23T22:17:21.933Z,4.00
2019-02-23T22:19:50.412Z,3.90
2019-02-23T22:22:18.864Z,3.90
2019-02-23T22:24:47.434Z,3.90
2019-02-23T22:27:15.890Z,3.90
2019-02-23T22:29:44.317Z,3.80
2019-02-23T22:32:12.747Z,3.80
2019-02-23T22:34:41.198Z,3.80
2019-02-23T22:37:09.648Z,3.80
2019-02-23T22:39:38.156Z,3.40
2019-02-23T22:42:06.593Z,3.40
2019-02-23T22:44:35.018Z,3.50
2019-02-23T22:47:03.439Z,3.50
2019-02-23T22:49:31.848Z,3.50
2019-02-23T22:52:00.269Z,3.10
2019-02-23T22:54:28.705Z,3.20
2019-02-23T22:56:57.113Z,3.30
2019-02-23T22:59:25.546Z,3.40
2019-02-23T23:01:54.132Z,3.40
2019-02-23T23:04:22.566Z,3.40
2019-02-23T23:06:50.999Z,3.30
2019-02-23T23:09:20.223Z,3.30
2019-02-23T23:11:48.630Z,3.30
2019-02-23T23:14:17.136Z,3.20
2019-02-23T23:16:45.604Z,3.30
2019-02-23T23:19:14.136Z,3.40
2019-02-23T23:21:42.557Z,3.30
2019-02-23T23:24:10.970Z,3.40
2019-02-23T23:26:39.402Z,3.20
2019-02-23T23:29:07.831Z,3.30
2019-02-23T23:31:36.330Z,3.30
2019-02-23T23:34:04.818Z,3.30
2019-02-23T23:36:33.290Z,3.30
2019-02-23T23:39:01.732Z,3.30
2019-02-23T23:41:30.155Z,3.30
2019-02-23T23:43:58.574Z,3.20
2019-02-23T23:46:27.002Z,3.30
2019-02-23T23:48:55.426Z,3.30
2019-02-23T23:51:23.870Z,3.20
2019-02-23T23:53:52.283Z,3.10
2019-02-23T23:56:20.725Z,3.10
2019-02-23T23:58:49.147Z,3.20
